This is the latest recevied weather packets stored in our database for station/object WP3XM. If no packets are shown the sender has not sent any weather packets the latest 10 day(s).
| Time | Temp. | Humidity | Pressure | Rain* | Wind** | Luminosity | Snow |
|---|---|---|---|---|---|---|---|
| 1777300158 | 29.44° C | 76% | 1018 hPa | 0 mm | - | 865 W/m² | - |
| 1777299854 | 28.89° C | 77% | 1017.9 hPa | 0 mm | - | 939 W/m² | - |
| 1777299552 | 28.89° C | 75% | 1018.3 hPa | 0 mm | - | 389 W/m² | - |
| 1777299250 | 29.44° C | 75% | 1018.1 hPa | 0 mm | - | 835 W/m² | - |
| 1777298946 | 28.89° C | 74% | 1018 hPa | 0 mm | - | 710 W/m² | - |
| 1777298644 | 29.44° C | 74% | 1018 hPa | 0 mm | - | 783 W/m² | - |
| 1777298340 | 29.44° C | 74% | 1018 hPa | 0 mm | - | 810 W/m² | - |
| 1777298036 | 29.44° C | 74% | 1018 hPa | 0 mm | - | 324 W/m² | - |
| 1777297731 | 30° C | 73% | 1018 hPa | 0 mm | - | 611 W/m² | - |
| 1777297430 | 29.44° C | 73% | 1017.8 hPa | 0 mm | - | 820 W/m² | - |
| 1777297126 | 28.89° C | 75% | 1018 hPa | 0 mm | - | 877 W/m² | - |
| 1777296823 | 29.44° C | 74% | 1018 hPa | 0 mm | - | 212 W/m² | - |
| 1777296518 | 29.44° C | 74% | 1017.9 hPa | 0 mm | - | 849 W/m² | - |
| 1777296215 | 29.44° C | 74% | 1018 hPa | 0 mm | - | 390 W/m² | - |
| 1777295911 | 29.44° C | 74% | 1018 hPa | 0 mm | - | 746 W/m² | - |
| 1777295603 | 29.44° C | 75% | 1018.1 hPa | 0 mm | - | 717 W/m² | - |
| 1777295300 | 28.89° C | 78% | 1017.9 hPa | 0 mm | - | 729 W/m² | - |
| 1777294998 | 28.89° C | 77% | 1017.9 hPa | 0 mm | - | 686 W/m² | - |
| 1777294694 | 29.44° C | 76% | 1017.8 hPa | 0 mm | - | 555 W/m² | - |
| 1777294389 | 29.44° C | 75% | 1017.9 hPa | 0 mm | - | 706 W/m² | - |
| 1777294087 | 29.44° C | 76% | 1017.7 hPa | 0 mm | - | 512 W/m² | - |
| 1777293784 | 30° C | 74% | 1017.7 hPa | 0 mm | - | 400 W/m² | - |
| 1777293484 | 28.89° C | 76% | 1017.7 hPa | 0 mm | - | 534 W/m² | - |
| 1777293180 | 28.89° C | 78% | 1017.3 hPa | 0 mm | - | 473 W/m² | - |
| 1777292879 | 28.33° C | 80% | 1017.5 hPa | 0 mm | - | 491 W/m² | - |
* Rain latest hour (hover to see other rain measurements)
** Current wind speed in m/s (hover to see current wind gust speed)